Upstream stations:
SHEF ID: PLYK1 COTTONWOOD R NR PLYMOUTH, KS
STATION TYPE:
Regulating: Stage = 28.00, Flow = 11213
PRECIP STAGE STAGE(2) RIV-FLOW BAT-LOAD
in ft ft cfs volt
Ccp-Rev Ccp-Rev Ccp-Rev Ccp-Rev Ccp-Rev
(US/Central)
11/17 00:00 0.00 2.90 3.10 197 12.24
11/17 01:00 0.00 2.90 3.10 197 12.24
11/17 02:00 0.00 2.90 3.10 197 12.24
11/17 03:00 0.00 2.90 3.10 197 12.19
11/17 04:00 0.00 2.86 3.11 191 12.19
11/17 05:00 0.00 2.87 3.10 192 12.19
11/17 06:00 0.00 2.87 3.11 192 12.19
11/17 07:00 0.00 2.86 3.11 191 12.19
11/17 08:00 0.00 2.86 3.11 191 12.13
11/17 09:00 0.00 2.85 3.10 189 12.13
11/17 10:00 0.00 2.87 3.11 192 12.13
11/17 11:00 0.00 2.84 3.11 188 12.13
11/17 12:00 0.00 2.85 3.11 189 12.42
11/17 13:00 0.00 2.84 3.10 188 12.42
11/17 14:00 0.00 2.84 3.10 188 12.71
11/17 15:00 0.00 2.86 3.10 191 12.60
11/17 16:00 0.00 2.87 3.10 192 12.48
11/17 17:00 0.00 2.87 3.10 192 12.42
11/17 18:00 0.00 2.86 3.10 191 12.36
11/17 19:00 0.00 2.86 3.11 191 12.24
11/17 20:00 0.00 2.86 3.10 191 12.19
11/17 21:00 0.00 2.85 3.10 189 12.19
11/17 22:00 0.00 2.86 3.10 191 12.13
11/17 23:00 0.00 2.86 3.10 191 12.13